createdAt,value
2022-12-23T00:09:12.437Z,4.70
2022-12-23T00:19:12.000Z,4.30
2022-12-23T00:29:11.882Z,4.10
2022-12-23T00:39:11.484Z,4.70
2022-12-23T00:49:11.376Z,4.60
2022-12-23T00:59:11.036Z,4.60
2022-12-23T01:09:10.598Z,5.60
2022-12-23T01:19:10.486Z,5.30
2022-12-23T01:29:10.038Z,5.10
2022-12-23T01:39:09.729Z,5.10
2022-12-23T01:49:09.599Z,5.90
2022-12-23T01:59:09.306Z,6.30
2022-12-23T02:09:08.886Z,6.10
2022-12-23T02:19:08.750Z,6.50
2022-12-23T02:29:08.289Z,6.80
2022-12-23T02:39:08.125Z,5.50
2022-12-23T02:49:07.791Z,5.80
2022-12-23T02:59:07.465Z,5.00
2022-12-23T03:09:07.032Z,5.10
2022-12-23T03:19:06.870Z,4.60
2022-12-23T03:29:06.386Z,5.50
2022-12-23T03:39:06.246Z,5.10
2022-12-23T03:49:05.742Z,5.60
2022-12-23T03:59:05.523Z,7.30
2022-12-23T04:09:04.991Z,5.70
2022-12-23T04:19:04.749Z,3.90
2022-12-23T04:29:04.251Z,5.00
2022-12-23T04:39:03.916Z,4.60
2022-12-23T04:49:03.523Z,4.70
2022-12-23T04:59:03.426Z,5.40
2022-12-23T05:09:02.780Z,4.20
2022-12-23T05:19:02.567Z,3.60
2022-12-23T05:29:02.043Z,3.90
2022-12-23T05:39:01.675Z,5.50
2022-12-23T05:49:01.304Z,5.80
2022-12-23T05:59:01.086Z,6.20
2022-12-23T06:09:00.706Z,5.40
2022-12-23T06:19:00.395Z,6.20
2022-12-23T06:28:59.922Z,6.20
2022-12-23T06:38:59.581Z,7.70
2022-12-23T06:48:59.384Z,7.50
2022-12-23T06:58:59.205Z,7.20
2022-12-23T07:08:58.618Z,7.60
2022-12-23T07:18:58.422Z,7.30
2022-12-23T07:28:57.929Z,7.00
2022-12-23T07:38:57.901Z,7.20
2022-12-23T07:48:57.212Z,6.60
2022-12-23T07:58:57.143Z,6.00
2022-12-23T08:08:56.485Z,6.40
2022-12-23T08:18:56.109Z,7.60
2022-12-23T08:28:55.772Z,7.00
2022-12-23T08:38:55.708Z,7.20
2022-12-23T08:48:55.081Z,7.50
2022-12-23T08:58:54.910Z,7.80
2022-12-23T09:08:54.449Z,7.80
2022-12-23T09:18:54.142Z,7.30
2022-12-23T09:28:54.039Z,6.00
2022-12-23T09:38:53.469Z,6.80
2022-12-23T09:48:53.295Z,6.90
2022-12-23T09:58:52.819Z,7.10
2022-12-23T10:08:52.499Z,8.10
2022-12-23T10:18:52.290Z,8.40
2022-12-23T10:28:51.867Z,8.10
2022-12-23T10:38:51.409Z,7.90
2022-12-23T10:48:51.383Z,8.00
2022-12-23T10:58:50.666Z,7.40
2022-12-23T11:08:50.373Z,6.40
2022-12-23T11:18:50.408Z,4.60
2022-12-23T11:28:49.918Z,3.80
2022-12-23T11:38:49.419Z,3.60
2022-12-23T11:48:54.500Z,4.40
2022-12-23T11:58:48.699Z,4.10
2022-12-23T12:08:48.325Z,4.50
2022-12-23T12:18:52.167Z,4.90
2022-12-23T12:28:47.585Z,3.80
2022-12-23T12:38:47.525Z,3.40
2022-12-23T12:48:46.842Z,3.30
2022-12-23T12:58:46.644Z,3.60
2022-12-23T13:08:46.169Z,3.30
2022-12-23T13:18:45.756Z,3.40
2022-12-23T13:28:45.388Z,3.30
2022-12-23T13:38:45.015Z,3.20
2022-12-23T13:48:44.690Z,3.10
2022-12-23T13:58:44.419Z,3.60
2022-12-23T14:08:44.046Z,2.80
2022-12-23T14:18:43.534Z,2.80
2022-12-23T14:28:43.320Z,2.50
2022-12-23T14:38:42.937Z,3.70
2022-12-23T14:48:42.731Z,2.50
2022-12-23T14:58:42.055Z,1.90
2022-12-23T15:08:41.897Z,2.30
2022-12-23T15:18:41.321Z,2.20
2022-12-23T15:28:41.090Z,2.90
2022-12-23T15:38:40.891Z,3.10
2022-12-23T15:48:40.216Z,3.30
2022-12-23T15:58:39.997Z,3.90
2022-12-23T16:08:39.517Z,4.80
2022-12-23T16:18:43.641Z,4.80
2022-12-23T16:28:38.759Z,6.90
2022-12-23T16:38:38.706Z,6.00
2022-12-23T16:48:38.021Z,5.90
2022-12-23T16:58:37.634Z,7.40
2022-12-23T17:08:37.216Z,7.40
2022-12-23T17:18:36.980Z,3.40
2022-12-23T17:28:36.446Z,3.90
2022-12-23T17:38:36.061Z,3.20
2022-12-23T17:48:35.713Z,2.80
2022-12-23T17:58:35.324Z,4.20
2022-12-23T18:08:34.988Z,3.00
2022-12-23T18:18:43.918Z,3.30
2022-12-23T18:28:34.385Z,3.00
2022-12-23T18:38:34.131Z,2.90
2022-12-23T18:48:33.970Z,3.40
2022-12-23T18:58:33.678Z,3.40
2022-12-23T19:08:33.373Z,3.60
2022-12-23T19:18:32.997Z,3.80
2022-12-23T19:28:32.728Z,4.40
2022-12-23T19:38:32.578Z,2.90
2022-12-23T19:48:32.279Z,5.60
2022-12-23T19:58:31.835Z,3.70
2022-12-23T20:08:31.451Z,3.50
2022-12-23T20:18:31.101Z,3.10
2022-12-23T20:28:30.964Z,3.90
2022-12-23T20:38:30.474Z,3.30
2022-12-23T20:48:33.961Z,4.30
2022-12-23T20:58:29.693Z,4.80
2022-12-23T21:08:29.167Z,4.20
2022-12-23T21:18:29.075Z,3.90
2022-12-23T21:28:28.573Z,2.90
2022-12-23T21:38:28.022Z,3.70
2022-12-23T21:48:27.819Z,2.90
2022-12-23T21:58:27.440Z,3.30
2022-12-23T22:08:27.061Z,3.70
2022-12-23T22:18:26.661Z,3.20
2022-12-23T22:28:26.285Z,2.90
2022-12-23T22:38:25.897Z,3.20
2022-12-23T22:48:25.359Z,2.90
2022-12-23T22:58:24.967Z,3.20
2022-12-23T23:08:24.557Z,3.20
2022-12-23T23:18:24.195Z,3.50
2022-12-23T23:28:23.797Z,3.20
2022-12-23T23:38:23.591Z,3.80
2022-12-23T23:48:23.166Z,3.60
2022-12-23T23:58:22.618Z,3.40
